createdAt,value
2023-01-23T00:00:53.136Z,5.07
2023-01-23T00:03:57.801Z,5.37
2023-01-23T00:06:59.865Z,4.67
2023-01-23T00:10:01.872Z,5.80
2023-01-23T00:13:03.820Z,8.00
2023-01-23T00:16:10.737Z,4.80
2023-01-23T00:19:12.742Z,6.57
2023-01-23T00:22:16.180Z,5.97
2023-01-23T00:25:18.226Z,7.87
2023-01-23T00:28:20.191Z,10.00
2023-01-23T00:31:27.411Z,5.77
2023-01-23T00:34:29.503Z,5.57
2023-01-23T00:37:31.499Z,9.43
2023-01-23T00:40:34.786Z,7.07
2023-01-23T00:43:36.812Z,9.33
2023-01-23T00:46:38.928Z,6.63
2023-01-23T00:49:40.871Z,7.03
2023-01-23T00:52:42.823Z,7.63
2023-01-23T00:55:44.794Z,9.33
2023-01-23T00:58:47.343Z,8.73
2023-01-23T01:01:49.468Z,7.23
2023-01-23T01:04:51.395Z,6.40
2023-01-23T01:07:53.335Z,4.33
2023-01-23T01:10:55.375Z,8.23
2023-01-23T01:13:57.590Z,4.80
2023-01-23T01:16:59.573Z,6.70
2023-01-23T01:20:01.645Z,7.97
2023-01-23T01:23:03.653Z,5.30
2023-01-23T01:26:05.970Z,6.77
2023-01-23T01:29:07.918Z,8.27
2023-01-23T01:32:09.987Z,9.03
2023-01-23T01:35:12.320Z,7.50
2023-01-23T01:38:14.307Z,7.80
2023-01-23T01:41:16.910Z,8.20
2023-01-23T01:44:21.188Z,5.57
2023-01-23T01:47:23.381Z,7.17
2023-01-23T01:50:25.254Z,6.23
2023-01-23T01:53:29.723Z,7.13
2023-01-23T01:56:33.476Z,8.90
2023-01-23T01:59:56.172Z,7.07
2023-01-23T02:02:59.751Z,6.07
2023-01-23T02:06:02.267Z,6.53
2023-01-23T02:09:26.168Z,8.20
2023-01-23T02:12:28.620Z,7.73
2023-01-23T02:15:30.638Z,6.57
2023-01-23T02:18:35.858Z,5.97
2023-01-23T02:21:39.493Z,5.73
2023-01-23T02:24:48.357Z,5.43
2023-01-23T02:27:50.363Z,5.67
2023-01-23T02:30:52.986Z,5.77
2023-01-23T02:33:57.418Z,7.27
2023-01-23T02:37:00.110Z,7.53
2023-01-23T02:40:03.938Z,5.23
2023-01-23T02:43:08.277Z,8.90
2023-01-23T02:46:11.964Z,10.03
2023-01-23T02:49:14.204Z,6.43
2023-01-23T02:52:16.440Z,7.40
2023-01-23T02:55:18.483Z,7.63
2023-01-23T02:58:39.299Z,6.50
2023-01-23T03:01:41.302Z,7.83
2023-01-23T03:04:43.263Z,6.70
2023-01-23T03:07:45.934Z,6.33
2023-01-23T03:10:48.138Z,7.40
2023-01-23T03:13:50.150Z,7.63
2023-01-23T03:16:54.243Z,5.83
2023-01-23T03:19:58.298Z,7.60
2023-01-23T03:23:00.253Z,7.23
2023-01-23T03:26:02.472Z,6.83
2023-01-23T03:29:22.776Z,7.97
2023-01-23T03:32:26.358Z,6.43
2023-01-23T03:35:28.310Z,6.73
2023-01-23T03:38:30.322Z,7.10
2023-01-23T03:41:32.399Z,6.90
2023-01-23T03:44:34.692Z,8.10
2023-01-23T03:47:36.797Z,6.97
2023-01-23T03:50:38.833Z,10.03
2023-01-23T03:53:40.851Z,7.30
2023-01-23T03:56:43.365Z,7.73
2023-01-23T03:59:45.298Z,8.30
2023-01-23T04:02:47.306Z,7.37
2023-01-23T04:05:49.635Z,8.70
2023-01-23T04:08:51.840Z,8.57
2023-01-23T04:11:57.512Z,6.87
2023-01-23T04:14:59.574Z,7.57
2023-01-23T04:18:01.471Z,8.03
2023-01-23T04:21:04.712Z,7.50
2023-01-23T04:24:07.252Z,6.17
2023-01-23T04:27:09.691Z,6.73
2023-01-23T04:30:12.521Z,9.33
2023-01-23T04:33:14.845Z,7.97
2023-01-23T04:36:17.387Z,6.13
2023-01-23T04:39:19.853Z,7.43
2023-01-23T04:42:21.871Z,8.10
2023-01-23T04:45:24.182Z,10.27
2023-01-23T04:48:26.236Z,7.33
2023-01-23T04:51:28.230Z,7.67
2023-01-23T04:54:30.192Z,7.63
2023-01-23T04:57:32.625Z,7.43
2023-01-23T05:00:34.599Z,6.23
2023-01-23T05:03:37.689Z,6.70
2023-01-23T05:06:39.842Z,5.23
2023-01-23T05:09:42.048Z,6.73
2023-01-23T05:12:44.028Z,8.77
2023-01-23T05:15:46.091Z,6.53
2023-01-23T05:18:48.070Z,6.90
2023-01-23T05:21:50.369Z,6.87
2023-01-23T05:24:52.960Z,7.37
2023-01-23T05:27:55.217Z,8.33
2023-01-23T05:30:57.379Z,7.23
2023-01-23T05:33:59.559Z,6.37
2023-01-23T05:37:01.562Z,8.37
2023-01-23T05:40:05.185Z,9.07
2023-01-23T05:43:07.109Z,8.90
2023-01-23T05:46:09.192Z,6.90
2023-01-23T05:49:11.250Z,5.83
2023-01-23T05:52:13.290Z,7.80
2023-01-23T05:55:15.222Z,8.60
2023-01-23T05:58:17.527Z,8.77
2023-01-23T06:01:20.073Z,7.93
2023-01-23T06:04:22.313Z,8.63
2023-01-23T06:07:24.315Z,10.70
2023-01-23T06:10:26.961Z,7.03
2023-01-23T06:13:29.843Z,7.43
2023-01-23T06:16:32.271Z,8.60
2023-01-23T06:19:35.285Z,8.80
2023-01-23T06:22:37.837Z,8.00
2023-01-23T06:25:40.393Z,7.07
2023-01-23T06:28:42.958Z,8.70
2023-01-23T06:31:46.421Z,9.33
2023-01-23T06:34:48.384Z,9.70
2023-01-23T06:37:50.300Z,11.77
2023-01-23T06:40:52.968Z,7.80
2023-01-23T06:43:55.555Z,8.40
2023-01-23T06:46:58.188Z,7.50
2023-01-23T06:50:02.334Z,8.80
2023-01-23T06:53:05.681Z,6.63
2023-01-23T06:56:08.348Z,8.23
2023-01-23T06:59:11.184Z,8.33
2023-01-23T07:02:13.330Z,8.23
2023-01-23T07:05:15.375Z,8.67
2023-01-23T07:08:17.627Z,7.23
2023-01-23T07:11:20.186Z,9.03
2023-01-23T07:14:22.456Z,9.60
2023-01-23T07:17:24.833Z,7.27
2023-01-23T07:20:29.974Z,9.40
2023-01-23T07:23:32.095Z,7.33
2023-01-23T07:26:33.969Z,7.83
2023-01-23T07:29:35.899Z,6.67
2023-01-23T07:32:37.752Z,8.27
2023-01-23T07:35:40.592Z,6.67
2023-01-23T07:38:42.564Z,7.93
2023-01-23T07:41:46.353Z,6.93
2023-01-23T07:44:48.379Z,8.60
2023-01-23T07:47:51.105Z,7.17
2023-01-23T07:50:53.078Z,6.10
2023-01-23T07:53:55.072Z,7.70
2023-01-23T07:56:57.024Z,7.27
2023-01-23T07:59:58.957Z,5.40
2023-01-23T08:03:01.070Z,7.63
2023-01-23T08:06:03.024Z,7.30
2023-01-23T08:09:05.008Z,8.87
2023-01-23T08:12:07.333Z,8.53
2023-01-23T08:15:09.656Z,9.53
2023-01-23T08:18:11.582Z,8.07
2023-01-23T08:21:13.629Z,8.03
2023-01-23T08:24:16.128Z,8.37
2023-01-23T08:27:18.002Z,7.50
2023-01-23T08:30:20.308Z,7.40
2023-01-23T08:33:23.004Z,7.90
2023-01-23T08:36:25.479Z,9.57
2023-01-23T08:39:27.503Z,8.63
2023-01-23T08:42:29.682Z,10.43
2023-01-23T08:45:31.576Z,10.57
2023-01-23T08:48:36.074Z,9.37
2023-01-23T08:51:38.179Z,8.93
2023-01-23T08:54:40.137Z,13.57
2023-01-23T08:57:42.110Z,9.30
2023-01-23T09:00:44.184Z,9.77
2023-01-23T09:03:46.367Z,10.53
2023-01-23T09:06:48.334Z,12.37
2023-01-23T09:09:50.381Z,15.87
2023-01-23T09:12:53.461Z,16.23
2023-01-23T09:15:55.647Z,12.17
2023-01-23T09:18:57.724Z,10.70
2023-01-23T09:21:59.713Z,11.17
2023-01-23T09:25:05.133Z,31.77
2023-01-23T09:28:08.019Z,12.47
2023-01-23T09:31:12.899Z,10.53
2023-01-23T09:34:17.041Z,13.23
2023-01-23T09:37:19.339Z,14.43
2023-01-23T09:40:23.733Z,11.67
2023-01-23T09:43:32.865Z,12.03
2023-01-23T09:46:41.784Z,11.87
2023-01-23T09:49:50.284Z,14.13
2023-01-23T09:52:59.570Z,13.00
2023-01-23T09:56:30.642Z,10.20
2023-01-23T09:59:50.255Z,9.17
2023-01-23T10:03:06.588Z,10.13
2023-01-23T10:06:26.021Z,12.43
2023-01-23T10:09:39.980Z,12.03
2023-01-23T10:13:03.171Z,12.67
2023-01-23T10:16:24.152Z,11.83
2023-01-23T10:19:39.713Z,21.10
2023-01-23T10:23:03.091Z,13.40
2023-01-23T10:26:05.248Z,14.70
2023-01-23T10:29:31.391Z,15.60
2023-01-23T10:32:59.298Z,14.67
2023-01-23T10:36:09.188Z,15.70
2023-01-23T10:39:20.336Z,17.00
2023-01-23T10:42:24.399Z,17.57
2023-01-23T10:45:26.434Z,15.97
2023-01-23T10:48:48.170Z,14.90
2023-01-23T10:51:50.932Z,16.23
2023-01-23T10:54:53.145Z,16.43
2023-01-23T10:57:58.250Z,16.50
2023-01-23T11:01:00.575Z,17.23
2023-01-23T11:04:20.483Z,19.63
2023-01-23T11:07:33.807Z,17.53
2023-01-23T11:10:35.651Z,20.57
2023-01-23T11:13:38.246Z,19.53
2023-01-23T11:16:40.312Z,19.53
2023-01-23T11:19:42.842Z,14.07
2023-01-23T11:22:44.970Z,19.30
2023-01-23T11:25:51.991Z,16.93
2023-01-23T11:28:53.867Z,18.40
2023-01-23T11:32:03.771Z,17.17
2023-01-23T11:35:43.835Z,18.37
2023-01-23T11:38:52.740Z,17.53
2023-01-23T11:41:55.285Z,21.07
2023-01-23T11:45:00.074Z,20.50
2023-01-23T11:48:26.834Z,20.43
2023-01-23T11:51:28.808Z,18.33
2023-01-23T11:54:55.156Z,29.17
2023-01-23T11:58:27.436Z,30.20
2023-01-23T12:01:49.332Z,25.27
2023-01-23T12:05:20.987Z,20.13
2023-01-23T12:08:52.896Z,20.73
2023-01-23T12:12:19.287Z,23.47
2023-01-23T12:16:00.128Z,25.43
2023-01-23T12:19:29.134Z,25.03
2023-01-23T12:22:41.812Z,26.00
2023-01-23T12:25:51.648Z,27.57
2023-01-23T12:29:13.093Z,24.67
2023-01-23T12:32:53.159Z,27.37
2023-01-23T12:36:07.094Z,25.97
2023-01-23T12:39:32.099Z,27.03
2023-01-23T12:42:43.420Z,26.90
2023-01-23T12:45:58.605Z,29.60
2023-01-23T12:49:06.340Z,27.80
2023-01-23T12:52:38.563Z,25.80
2023-01-23T12:56:18.129Z,24.50
2023-01-23T12:59:35.740Z,24.50
2023-01-23T13:02:59.411Z,83.77
2023-01-23T13:06:01.391Z,152.17
2023-01-23T13:09:18.392Z,85.53
2023-01-23T13:12:28.501Z,32.57
2023-01-23T13:15:40.470Z,27.17
2023-01-23T13:19:41.833Z,27.83
2023-01-23T13:22:43.753Z,24.37
2023-01-23T13:25:46.099Z,23.10
2023-01-23T13:28:49.008Z,25.63
2023-01-23T13:31:53.190Z,26.87
2023-01-23T13:34:55.531Z,25.57
2023-01-23T13:37:59.654Z,27.83
2023-01-23T13:41:18.835Z,29.47
2023-01-23T13:44:35.871Z,25.93
2023-01-23T14:25:34.320Z,32.33
2023-01-23T14:28:36.456Z,32.80
2023-01-23T14:31:42.862Z,29.03
2023-01-23T14:34:45.271Z,33.30
2023-01-23T14:37:48.115Z,31.37
2023-01-23T14:40:51.329Z,33.53
2023-01-23T14:43:55.300Z,30.20
2023-01-23T14:46:59.281Z,30.17
2023-01-23T14:50:02.447Z,31.80
2023-01-23T14:53:15.088Z,31.70
2023-01-23T14:56:17.587Z,28.93
2023-01-23T14:59:30.555Z,28.17
2023-01-23T15:02:36.640Z,31.43
2023-01-23T15:05:41.135Z,28.03
2023-01-23T15:08:43.631Z,28.67
2023-01-23T15:11:46.010Z,30.20
2023-01-23T15:14:53.037Z,29.53
2023-01-23T15:17:59.915Z,30.37
2023-01-23T15:21:08.176Z,31.17
2023-01-23T15:24:10.150Z,38.60
2023-01-23T15:27:26.269Z,37.80
2023-01-23T15:30:41.906Z,32.17
2023-01-23T15:33:45.472Z,31.03
2023-01-23T15:36:57.277Z,33.23
2023-01-23T15:40:03.041Z,32.97
2023-01-23T15:43:10.436Z,32.23
2023-01-23T15:46:14.299Z,33.03
2023-01-23T15:49:25.517Z,31.03
2023-01-23T15:52:31.000Z,32.97
2023-01-23T15:55:33.151Z,29.03
2023-01-23T15:58:35.098Z,32.10
2023-01-23T16:01:37.146Z,30.77
2023-01-23T16:04:39.709Z,31.23
2023-01-23T16:07:43.547Z,31.37
2023-01-23T16:10:47.428Z,34.20
2023-01-23T16:13:49.352Z,30.57
2023-01-23T16:16:51.481Z,37.03
2023-01-23T16:19:54.601Z,37.77
2023-01-23T16:23:14.173Z,34.97
2023-01-23T16:26:22.354Z,36.53
2023-01-23T16:29:29.549Z,39.77
2023-01-23T16:32:31.703Z,37.50
2023-01-23T16:35:34.372Z,32.67
2023-01-23T16:38:36.324Z,33.47
2023-01-23T16:41:39.093Z,32.83
2023-01-23T16:44:40.993Z,36.97
2023-01-23T16:47:43.133Z,42.43
2023-01-23T16:50:48.119Z,38.10
2023-01-23T16:53:53.974Z,30.23
2023-01-23T16:56:57.587Z,33.97
2023-01-23T16:59:59.893Z,33.20
2023-01-23T17:03:04.756Z,34.23
2023-01-23T17:06:11.341Z,39.03
2023-01-23T17:09:14.313Z,41.33
2023-01-23T17:12:19.306Z,37.83
2023-01-23T17:15:23.924Z,36.33
2023-01-23T17:18:28.131Z,35.93
2023-01-23T17:21:33.685Z,39.40
2023-01-23T17:24:36.184Z,37.13
2023-01-23T17:27:45.015Z,38.77
2023-01-23T17:30:50.945Z,34.33
2023-01-23T17:33:52.990Z,34.63
2023-01-23T17:36:57.443Z,34.90
2023-01-23T17:39:59.728Z,37.93
2023-01-23T17:43:01.769Z,33.27
2023-01-23T17:46:04.990Z,32.87
2023-01-23T17:49:28.685Z,32.40
2023-01-23T17:52:31.311Z,40.47
2023-01-23T17:55:33.484Z,39.80
2023-01-23T17:58:35.467Z,36.53
2023-01-23T18:01:37.921Z,37.07
2023-01-23T18:04:40.381Z,32.37
2023-01-23T18:07:53.299Z,31.57
2023-01-23T18:10:59.381Z,37.00
2023-01-23T18:14:43.092Z,37.20
2023-01-23T18:17:56.657Z,30.70
2023-01-23T18:20:59.903Z,33.47
2023-01-23T18:24:02.086Z,38.67
2023-01-23T18:31:05.068Z,50.40
2023-01-23T18:34:18.597Z,51.63
2023-01-23T18:37:35.698Z,47.87
2023-01-23T18:41:19.177Z,50.40
2023-01-23T18:44:25.658Z,47.50
2023-01-23T18:47:28.140Z,40.70
2023-01-23T18:50:30.577Z,43.27
2023-01-23T18:53:56.218Z,38.50
2023-01-23T18:57:35.834Z,40.80
2023-01-23T19:00:45.815Z,43.63
2023-01-23T19:03:49.150Z,44.93
2023-01-23T19:06:51.641Z,43.60
2023-01-23T19:09:53.882Z,42.97
2023-01-23T19:13:00.123Z,44.40
2023-01-23T19:16:13.569Z,39.63
2023-01-23T19:19:19.757Z,36.47
2023-01-23T19:22:22.945Z,41.47
2023-01-23T19:25:25.197Z,38.50
2023-01-23T19:28:27.381Z,34.60
2023-01-23T19:31:31.330Z,40.33
2023-01-23T19:34:35.153Z,40.53
2023-01-23T19:37:40.214Z,40.63
2023-01-23T19:40:43.250Z,35.70
2023-01-23T19:43:49.503Z,39.57
2023-01-23T19:46:52.466Z,33.97
2023-01-23T19:49:54.552Z,34.93
2023-01-23T19:52:57.459Z,37.70
2023-01-23T19:56:01.650Z,34.37
2023-01-23T19:59:03.665Z,35.03
2023-01-23T20:02:25.313Z,36.33
2023-01-23T20:05:27.956Z,36.47
2023-01-23T20:08:29.894Z,36.43
2023-01-23T20:11:31.925Z,36.47
2023-01-23T20:14:33.890Z,35.57
2023-01-23T20:17:35.923Z,36.63
2023-01-23T20:20:37.919Z,35.20
2023-01-23T20:23:39.902Z,28.03
2023-01-23T20:26:42.587Z,30.40
2023-01-23T20:29:44.753Z,31.33
2023-01-23T20:32:46.794Z,34.57
2023-01-23T20:35:52.181Z,34.07
2023-01-23T20:38:54.787Z,33.27
2023-01-23T20:41:57.052Z,26.57
2023-01-23T20:44:58.939Z,29.87
2023-01-23T20:48:01.161Z,25.20
2023-01-23T20:51:03.463Z,26.07
2023-01-23T20:54:05.914Z,26.93
2023-01-23T20:57:08.063Z,29.53
2023-01-23T21:00:11.027Z,25.60
2023-01-23T21:03:13.113Z,31.53
2023-01-23T21:06:15.724Z,28.77
2023-01-23T21:09:18.277Z,28.47
2023-01-23T21:12:23.290Z,31.20
2023-01-23T21:15:28.347Z,26.13
2023-01-23T21:18:30.913Z,27.90
2023-01-23T21:21:32.976Z,25.23
2023-01-23T21:24:36.680Z,27.63
2023-01-23T21:27:38.617Z,27.03
2023-01-23T21:30:42.247Z,26.67
2023-01-23T21:33:45.063Z,28.27
2023-01-23T21:36:47.027Z,30.93
2023-01-23T21:39:49.078Z,32.77
2023-01-23T21:42:51.951Z,32.47
2023-01-23T21:45:53.862Z,34.47
2023-01-23T21:48:56.358Z,37.90
2023-01-23T21:51:58.413Z,33.43
2023-01-23T21:55:00.615Z,33.53
2023-01-23T21:58:02.525Z,31.93
2023-01-23T22:01:26.480Z,34.63
2023-01-23T22:04:29.575Z,30.87
2023-01-23T22:07:32.570Z,31.70
2023-01-23T22:10:34.813Z,29.10
2023-01-23T22:13:37.298Z,27.90
2023-01-23T22:16:54.590Z,31.10
2023-01-23T22:19:56.681Z,27.73
2023-01-23T22:22:58.987Z,29.67
2023-01-23T22:26:07.856Z,28.70
2023-01-23T22:29:12.272Z,30.20
2023-01-23T22:32:14.695Z,33.10
2023-01-23T22:35:17.169Z,30.73
2023-01-23T22:38:19.330Z,30.67
2023-01-23T22:41:22.149Z,27.87
2023-01-23T22:44:24.510Z,30.43
2023-01-23T22:47:26.504Z,29.83
2023-01-23T22:50:29.775Z,34.37
2023-01-23T22:53:32.160Z,28.83
2023-01-23T22:56:34.299Z,32.33
2023-01-23T22:59:36.209Z,29.10
2023-01-23T23:02:40.028Z,27.67
2023-01-23T23:05:41.969Z,34.93
2023-01-23T23:08:47.675Z,28.93
2023-01-23T23:11:52.091Z,30.93
2023-01-23T23:14:54.003Z,27.37
2023-01-23T23:17:55.912Z,28.40
2023-01-23T23:21:02.551Z,25.07
2023-01-23T23:24:07.540Z,26.40
2023-01-23T23:27:09.561Z,21.27
2023-01-23T23:30:12.223Z,24.47
2023-01-23T23:33:14.327Z,18.97
2023-01-23T23:36:16.412Z,18.80
2023-01-23T23:39:19.119Z,19.47
2023-01-23T23:42:21.050Z,24.53
2023-01-23T23:45:23.333Z,21.27
2023-01-23T23:48:26.139Z,23.23
2023-01-23T23:51:28.170Z,24.13
2023-01-23T23:54:30.139Z,25.83
2023-01-23T23:57:32.273Z,25.33
